createdAt,value
2022-12-14T00:02:51.067Z,93986.16
2022-12-14T00:06:34.975Z,93967.38
2022-12-14T00:10:19.062Z,93952.50
2022-12-14T00:14:03.216Z,93940.63
2022-12-14T00:17:46.987Z,93942.81
2022-12-14T00:21:30.064Z,93966.28
2022-12-14T00:25:12.845Z,93985.19
2022-12-14T00:28:57.476Z,93998.47
2022-12-14T00:32:40.952Z,93995.47
2022-12-14T00:36:23.845Z,94001.28
2022-12-14T00:40:08.671Z,93994.53
2022-12-14T00:43:51.360Z,93988.97
2022-12-14T00:47:40.517Z,93969.88
2022-12-14T00:51:23.594Z,93981.41
2022-12-14T00:55:07.186Z,93959.75
2022-12-14T00:58:53.177Z,93971.19
2022-12-14T01:02:37.247Z,93975.72
2022-12-14T01:06:21.733Z,93983.94
2022-12-14T01:10:04.519Z,94006.09
2022-12-14T01:13:49.510Z,93994.72
2022-12-14T01:17:32.598Z,93991.19
2022-12-14T01:21:18.886Z,93984.81
2022-12-14T01:25:01.609Z,93980.03
2022-12-14T01:28:45.126Z,93976.84
2022-12-14T01:32:27.873Z,93972.66
2022-12-14T01:36:13.392Z,93968.78
2022-12-14T01:39:57.546Z,93969.75
2022-12-14T01:43:47.069Z,93969.09
2022-12-14T01:47:43.249Z,93980.31
2022-12-14T01:51:26.618Z,93968.50
2022-12-14T01:55:13.477Z,93975.25
2022-12-14T01:58:57.369Z,93975.09
2022-12-14T02:02:43.128Z,93975.75
2022-12-14T02:06:28.319Z,93977.34
2022-12-14T02:10:12.649Z,93977.81
2022-12-14T02:13:55.410Z,93960.78
2022-12-14T02:17:38.319Z,93941.84
2022-12-14T02:21:24.999Z,93947.16
2022-12-14T02:25:22.325Z,93950.59
2022-12-14T02:29:26.936Z,93948.69
2022-12-14T02:33:22.095Z,93933.56
2022-12-14T02:37:08.377Z,93937.09
2022-12-14T02:40:58.527Z,93926.50
2022-12-14T02:44:48.148Z,93929.75
2022-12-14T02:48:35.227Z,93928.78
2022-12-14T02:52:23.841Z,93927.03
2022-12-14T02:56:11.488Z,93910.81
2022-12-14T02:59:57.999Z,93896.19
2022-12-14T03:03:40.762Z,93897.81
2022-12-14T03:07:36.514Z,93914.19
2022-12-14T03:11:22.510Z,93907.28
2022-12-14T03:15:08.726Z,93878.69
2022-12-14T03:18:53.136Z,93886.41
2022-12-14T03:22:40.762Z,93889.31
2022-12-14T03:26:27.013Z,93884.03
2022-12-14T03:30:14.062Z,93879.03
2022-12-14T03:33:58.224Z,93883.88
2022-12-14T03:37:43.379Z,93883.69
2022-12-14T03:41:30.310Z,93884.50
2022-12-14T03:45:19.001Z,93881.28
2022-12-14T03:49:08.538Z,93882.06
2022-12-14T03:52:56.817Z,93888.66
2022-12-14T03:56:48.322Z,93891.25
2022-12-14T04:00:44.375Z,93889.31
2022-12-14T04:04:31.927Z,93898.50
2022-12-14T04:08:21.482Z,93904.13
2022-12-14T04:12:24.658Z,93903.00
2022-12-14T04:16:30.285Z,93889.19
2022-12-14T04:20:19.132Z,93867.50
2022-12-14T04:24:18.340Z,93852.72
2022-12-14T04:28:05.260Z,93836.84
2022-12-14T04:31:52.672Z,93836.84
2022-12-14T04:35:39.079Z,93837.63
2022-12-14T04:39:25.072Z,93822.38
2022-12-14T04:43:12.309Z,93830.72
2022-12-14T04:46:57.506Z,93823.16
2022-12-14T04:50:43.947Z,93822.03
2022-12-14T04:54:29.649Z,93817.38
2022-12-14T04:58:14.558Z,93807.75
2022-12-14T05:02:06.437Z,93817.88
2022-12-14T05:05:57.358Z,93821.91
2022-12-14T05:09:42.189Z,93824.63
2022-12-14T05:13:28.945Z,93826.56
2022-12-14T05:17:13.573Z,93817.56
2022-12-14T05:20:56.264Z,93819.66
2022-12-14T05:24:38.939Z,93819.50
2022-12-14T05:28:21.627Z,93817.41
2022-12-14T05:32:04.590Z,93813.56
2022-12-14T05:35:48.706Z,93807.78
2022-12-14T05:39:31.393Z,93797.16
2022-12-14T05:43:14.280Z,93791.69
2022-12-14T05:46:56.981Z,93791.53
2022-12-14T05:50:39.661Z,93789.63
2022-12-14T05:54:23.707Z,93793.00
2022-12-14T05:58:06.483Z,93780.78
2022-12-14T06:01:50.660Z,93768.88
2022-12-14T06:05:33.606Z,93754.91
2022-12-14T06:09:17.303Z,93753.78
2022-12-14T06:13:01.378Z,93756.00
2022-12-14T06:16:45.334Z,93757.34
2022-12-14T06:20:28.329Z,93765.38
2022-12-14T06:24:11.825Z,93770.19
2022-12-14T06:27:55.495Z,93750.25
2022-12-14T06:31:39.679Z,93740.28
2022-12-14T06:35:25.081Z,93753.16
2022-12-14T06:39:09.204Z,93745.44
2022-12-14T06:42:51.857Z,93748.81
2022-12-14T06:46:35.240Z,93735.94
2022-12-14T06:50:19.260Z,93725.81
2022-12-14T06:54:02.046Z,93727.75
2022-12-14T06:57:44.725Z,93722.59
2022-12-14T07:01:28.635Z,93714.88
2022-12-14T07:05:11.371Z,93712.63
2022-12-14T07:08:56.727Z,93722.13
2022-12-14T07:12:39.745Z,93710.69
2022-12-14T07:16:25.577Z,93714.25
2022-12-14T07:20:09.687Z,93696.88
2022-12-14T07:23:53.213Z,93698.16
2022-12-14T07:27:37.219Z,93702.34
2022-12-14T07:31:21.805Z,93707.16
2022-12-14T07:35:05.239Z,93702.00
2022-12-14T07:38:49.195Z,93691.06
2022-12-14T07:42:31.829Z,93686.72
2022-12-14T07:46:17.470Z,93682.06
2022-12-14T07:50:00.140Z,93679.97
2022-12-14T07:53:43.094Z,93696.34
2022-12-14T07:57:25.727Z,93686.38
2022-12-14T08:01:11.310Z,93683.31
2022-12-14T08:04:55.507Z,93690.06
2022-12-14T08:08:38.299Z,93682.00
2022-12-14T08:12:21.115Z,93670.41
2022-12-14T08:16:04.641Z,93658.03
2022-12-14T08:19:47.335Z,93659.97
2022-12-14T08:23:32.172Z,93650.81
2022-12-14T08:27:15.272Z,93652.09
2022-12-14T08:30:58.794Z,93637.59
2022-12-14T08:34:41.517Z,93628.22
2022-12-14T08:38:24.174Z,93627.09
2022-12-14T08:42:08.175Z,93629.19
2022-12-14T08:45:50.865Z,93636.88
2022-12-14T08:49:33.542Z,93642.31
2022-12-14T08:53:16.224Z,93641.19
2022-12-14T08:56:58.901Z,93621.72
2022-12-14T09:00:45.094Z,93620.28
2022-12-14T09:04:27.853Z,93622.25
2022-12-14T09:08:10.526Z,93605.38
2022-12-14T09:11:53.191Z,93606.91
2022-12-14T09:15:35.894Z,93613.44
2022-12-14T09:19:19.990Z,93611.94
2022-12-14T09:23:02.870Z,93606.09
2022-12-14T09:26:47.095Z,93610.03
2022-12-14T09:30:29.943Z,93607.63
2022-12-14T09:34:12.650Z,93607.63
2022-12-14T09:37:56.704Z,93594.72
2022-12-14T09:41:50.733Z,93586.66
2022-12-14T09:45:35.426Z,93587.28
2022-12-14T09:49:26.397Z,93581.13
2022-12-14T09:53:14.269Z,93567.63
2022-12-14T09:56:59.734Z,93556.59
2022-12-14T10:00:52.942Z,93537.88
2022-12-14T10:04:47.821Z,93547.38
2022-12-14T10:08:35.741Z,93543.13
2022-12-14T10:12:32.529Z,93528.53
2022-12-14T10:16:24.251Z,93522.66
2022-12-14T10:20:15.769Z,93508.41
2022-12-14T10:24:02.719Z,93510.44
2022-12-14T10:31:58.686Z,93480.53
2022-12-14T10:35:49.396Z,93474.75
2022-12-14T10:39:41.741Z,93480.69
2022-12-14T10:43:33.258Z,93491.47
2022-12-14T10:47:21.485Z,93499.94
2022-12-14T10:51:07.242Z,93486.84
2022-12-14T10:54:54.174Z,93495.47
2022-12-14T10:58:36.851Z,93499.53
2022-12-14T11:02:21.525Z,93495.25
2022-12-14T11:06:08.205Z,93476.78
2022-12-14T11:09:52.679Z,93465.53
2022-12-14T11:13:35.351Z,93464.63
2022-12-14T11:17:30.824Z,93478.53
2022-12-14T11:21:16.270Z,93462.66
2022-12-14T11:25:00.316Z,93461.75
2022-12-14T11:28:50.375Z,93456.13
2022-12-14T11:32:33.303Z,93460.22
2022-12-14T11:36:25.071Z,93457.25
2022-12-14T11:40:20.933Z,93451.34
2022-12-14T11:44:06.401Z,93430.75
2022-12-14T11:48:15.377Z,93426.53
2022-12-14T11:52:03.788Z,93425.47
2022-12-14T11:55:51.790Z,93434.63
2022-12-14T11:59:39.505Z,93446.56
2022-12-14T12:03:25.430Z,93444.75
2022-12-14T12:07:14.058Z,93470.44
2022-12-14T12:11:02.594Z,93447.34
2022-12-14T12:14:45.795Z,93438.59
2022-12-14T12:18:33.951Z,93419.88
2022-12-14T12:22:17.247Z,93410.72
2022-12-14T12:26:04.663Z,93424.69
2022-12-14T12:29:49.749Z,93417.16
2022-12-14T12:33:36.268Z,93419.56
2022-12-14T12:37:26.598Z,93412.00
2022-12-14T12:41:19.824Z,93415.97
2022-12-14T12:45:06.998Z,93410.41
2022-12-14T12:48:51.803Z,93413.00
2022-12-14T12:52:38.152Z,93415.59
2022-12-14T12:56:24.492Z,93393.31
2022-12-14T13:00:08.580Z,93410.84
2022-12-14T13:03:53.058Z,93406.28
2022-12-14T13:07:39.181Z,93419.44
2022-12-14T13:11:26.406Z,93428.81
2022-12-14T13:15:17.454Z,93439.59
2022-12-14T13:19:32.144Z,93444.78
2022-12-14T13:23:43.094Z,93454.28
2022-12-14T13:27:52.712Z,93455.63
2022-12-14T13:31:39.098Z,93451.38
2022-12-14T13:35:34.859Z,93461.88
2022-12-14T13:39:31.761Z,93479.75
2022-12-14T13:43:36.678Z,93479.53
2022-12-14T13:47:22.062Z,93477.44
2022-12-14T13:51:09.615Z,93480.13
2022-12-14T13:54:52.869Z,93472.91
2022-12-14T13:58:40.696Z,93478.63
2022-12-14T14:02:40.739Z,93484.66
2022-12-14T14:06:35.668Z,93469.34
2022-12-14T14:10:30.927Z,93478.16
2022-12-14T14:14:22.397Z,93467.44
2022-12-14T14:18:15.359Z,93475.47
2022-12-14T14:26:27.451Z,93454.13
2022-12-14T14:30:36.932Z,93462.16
2022-12-14T14:34:24.349Z,93469.34
2022-12-14T14:38:12.848Z,93474.94
2022-12-14T14:41:55.826Z,93460.81
2022-12-14T14:45:41.782Z,93474.94
2022-12-14T14:49:27.057Z,93461.84
2022-12-14T14:53:26.316Z,93474.56
2022-12-14T14:57:35.594Z,93486.53
2022-12-14T15:01:26.921Z,93489.72
2022-12-14T15:05:41.745Z,93483.19
2022-12-14T15:09:22.334Z,93460.75
2022-12-14T15:13:07.192Z,93475.97
2022-12-14T15:16:51.269Z,93476.78
2022-12-14T15:20:33.925Z,93477.63
2022-12-14T15:24:16.778Z,93470.69
2022-12-14T15:28:05.337Z,93465.38
2022-12-14T15:31:59.259Z,93484.13
2022-12-14T15:35:42.477Z,93482.94
2022-12-14T15:39:33.629Z,93484.75
2022-12-14T15:43:18.777Z,93486.75
2022-12-14T15:47:02.961Z,93493.75
2022-12-14T15:50:46.381Z,93505.72
2022-12-14T15:54:29.292Z,93511.47
2022-12-14T15:58:17.338Z,93506.09
2022-12-14T16:02:07.386Z,93509.13
2022-12-14T16:05:50.526Z,93514.19
2022-12-14T16:09:35.012Z,93516.63
2022-12-14T16:13:21.709Z,93519.03
2022-12-14T16:17:05.979Z,93533.34
2022-12-14T16:20:57.508Z,93530.16
2022-12-14T16:24:54.915Z,93543.69
2022-12-14T16:28:38.440Z,93556.06
2022-12-14T16:32:23.289Z,93554.47
2022-12-14T16:36:08.708Z,93571.16
2022-12-14T16:39:52.532Z,93567.59
2022-12-14T16:43:37.777Z,93571.72
2022-12-14T16:48:04.647Z,93575.47
2022-12-14T16:56:04.604Z,93582.63
2022-12-14T16:59:48.985Z,93584.22
2022-12-14T17:03:34.077Z,93591.75
2022-12-14T17:07:17.304Z,93591.75
2022-12-14T17:11:00.118Z,93608.50
2022-12-14T17:14:49.400Z,93603.16
2022-12-14T17:18:36.554Z,93614.94
2022-12-14T17:22:22.034Z,93622.06
2022-12-14T17:26:04.777Z,93624.03
2022-12-14T17:29:47.490Z,93628.88
2022-12-14T17:33:31.432Z,93632.69
2022-12-14T17:37:18.680Z,93641.25
2022-12-14T17:41:01.502Z,93644.03
2022-12-14T17:44:46.416Z,93630.09
2022-12-14T17:48:29.255Z,93639.09
2022-12-14T17:52:19.785Z,93650.44
2022-12-14T17:56:02.490Z,93657.47
2022-12-14T17:59:47.597Z,93655.47
2022-12-14T18:03:32.639Z,93664.63
2022-12-14T18:07:15.677Z,93673.59
2022-12-14T18:11:01.545Z,93675.63
2022-12-14T18:14:45.094Z,93678.84
2022-12-14T18:18:29.518Z,93676.91
2022-12-14T18:22:12.405Z,93687.84
2022-12-14T18:26:05.510Z,93686.41
2022-12-14T18:29:48.262Z,93702.38
2022-12-14T18:33:31.992Z,93694.81
2022-12-14T18:37:17.519Z,93709.69
2022-12-14T18:41:05.835Z,93714.13
2022-12-14T18:44:48.530Z,93733.03
2022-12-14T18:48:31.212Z,93723.25
2022-12-14T18:52:13.974Z,93734.78
2022-12-14T18:55:56.878Z,93733.78
2022-12-14T18:59:42.813Z,93745.69
2022-12-14T19:03:26.220Z,93744.91
2022-12-14T19:07:08.992Z,93758.34
2022-12-14T19:10:52.472Z,93752.63
2022-12-14T19:14:35.183Z,93757.31
2022-12-14T19:18:19.322Z,93760.00
2022-12-14T19:22:04.257Z,93777.88
2022-12-14T19:25:47.359Z,93783.06
2022-12-14T19:29:30.046Z,93764.69
2022-12-14T19:33:13.165Z,93759.88
2022-12-14T19:36:57.328Z,93748.00
2022-12-14T19:40:40.245Z,93753.06
2022-12-14T19:44:23.035Z,93770.19
2022-12-14T19:48:11.341Z,93757.69
2022-12-14T19:51:57.063Z,93763.22
2022-12-14T19:55:39.689Z,93764.81
2022-12-14T19:59:22.422Z,93781.72
2022-12-14T20:03:05.847Z,93783.50
2022-12-14T20:06:48.641Z,93787.88
2022-12-14T20:10:32.668Z,93795.00
2022-12-14T20:14:15.744Z,93801.44
2022-12-14T20:17:58.463Z,93804.63
2022-12-14T20:21:41.267Z,93806.97
2022-12-14T20:25:24.046Z,93800.25
2022-12-14T20:29:08.302Z,93813.13
2022-12-14T20:32:53.429Z,93807.25
2022-12-14T20:36:36.637Z,93821.63
2022-12-14T20:40:19.316Z,93808.69
2022-12-14T20:44:03.092Z,93807.31
2022-12-14T20:47:47.114Z,93816.34
2022-12-14T20:51:31.560Z,93831.97
2022-12-14T20:55:14.318Z,93830.97
2022-12-14T20:58:57.146Z,93834.63
2022-12-14T21:02:40.227Z,93831.97
2022-12-14T21:06:24.872Z,93837.50
2022-12-14T21:10:08.928Z,93843.03
2022-12-14T21:13:51.586Z,93851.78
2022-12-14T21:17:34.545Z,93855.09
2022-12-14T21:21:17.308Z,93845.81
2022-12-14T21:25:04.916Z,93857.75
2022-12-14T21:28:48.348Z,93862.75
2022-12-14T21:32:31.089Z,93857.22
2022-12-14T21:36:14.096Z,93855.88
2022-12-14T21:39:57.965Z,93855.50
2022-12-14T21:43:42.027Z,93860.34
2022-12-14T21:47:26.711Z,93856.50
2022-12-14T21:51:11.135Z,93845.00
2022-12-14T21:54:53.791Z,93861.88
2022-12-14T21:58:35.501Z,93868.09
2022-12-14T22:02:21.288Z,93873.91
2022-12-14T22:06:05.393Z,93878.91
2022-12-14T22:09:49.528Z,93889.25
2022-12-14T22:13:33.148Z,93894.34
2022-12-14T22:17:16.151Z,93889.97
2022-12-14T22:21:04.978Z,93887.81
2022-12-14T22:24:49.200Z,93882.97
2022-12-14T22:28:31.815Z,93885.75
2022-12-14T22:32:14.955Z,93884.06
2022-12-14T22:35:58.461Z,93896.53
2022-12-14T22:39:42.760Z,93904.91
2022-12-14T22:43:29.724Z,93891.53
2022-12-14T22:47:14.442Z,93894.41
2022-12-14T22:50:59.807Z,93897.97
2022-12-14T22:54:43.881Z,93898.06
2022-12-14T22:58:33.179Z,93891.03
2022-12-14T23:02:16.391Z,93894.25
2022-12-14T23:06:02.243Z,93899.06
2022-12-14T23:10:07.193Z,93903.88
2022-12-14T23:14:08.940Z,93898.97
2022-12-14T23:18:09.099Z,93904.78
2022-12-14T23:22:09.474Z,93895.69
2022-12-14T23:26:11.068Z,93903.34
2022-12-14T23:30:11.378Z,93905.31
2022-12-14T23:34:11.635Z,93902.53
2022-12-14T23:38:14.961Z,93917.25
2022-12-14T23:42:16.415Z,93929.59
2022-12-14T23:46:16.887Z,93924.41
2022-12-14T23:50:17.027Z,93930.56
2022-12-14T23:54:17.250Z,93929.59
2022-12-14T23:58:18.892Z,93938.31
